sensor_id;sensor_type;location;lat;lon;timestamp;P1;durP1;ratioP1;P2;durP2;ratioP2
31526;SDS011;18136;42.236;-73.040;2023-04-24T00:00:38;4.00;;;1.65;;
31526;SDS011;18136;42.236;-73.040;2023-04-24T00:03:06;5.10;;;1.90;;
31526;SDS011;18136;42.236;-73.040;2023-04-24T00:05:32;3.47;;;2.22;;
31526;SDS011;18136;42.236;-73.040;2023-04-24T00:07:59;3.90;;;1.90;;
31526;SDS011;18136;42.236;-73.040;2023-04-24T00:10:25;2.38;;;1.30;;
31526;SDS011;18136;42.236;-73.040;2023-04-24T00:12:51;2.00;;;1.20;;
31526;SDS011;18136;42.236;-73.040;2023-04-24T00:15:17;4.10;;;1.58;;
31526;SDS011;18136;42.236;-73.040;2023-04-24T00:17:43;2.17;;;1.50;;
31526;SDS011;18136;42.236;-73.040;2023-04-24T00:20:12;2.85;;;1.60;;
31526;SDS011;18136;42.236;-73.040;2023-04-24T00:22:40;1.98;;;1.13;;
31526;SDS011;18136;42.236;-73.040;2023-04-24T00:25:06;1.75;;;1.60;;
31526;SDS011;18136;42.236;-73.040;2023-04-24T00:27:32;3.58;;;1.40;;
31526;SDS011;18136;42.236;-73.040;2023-04-24T00:30:00;1.65;;;1.48;;
31526;SDS011;18136;42.236;-73.040;2023-04-24T00:32:26;1.40;;;1.30;;
31526;SDS011;18136;42.236;-73.040;2023-04-24T00:34:52;1.95;;;1.50;;
31526;SDS011;18136;42.236;-73.040;2023-04-24T00:37:18;1.90;;;1.60;;
31526;SDS011;18136;42.236;-73.040;2023-04-24T00:39:44;2.40;;;1.92;;
31526;SDS011;18136;42.236;-73.040;2023-04-24T00:42:11;2.65;;;1.95;;
31526;SDS011;18136;42.236;-73.040;2023-04-24T00:44:37;2.10;;;1.65;;
31526;SDS011;18136;42.236;-73.040;2023-04-24T00:47:04;4.72;;;1.55;;
31526;SDS011;18136;42.236;-73.040;2023-04-24T00:49:35;3.78;;;1.58;;
31526;SDS011;18136;42.236;-73.040;2023-04-24T00:52:01;2.47;;;1.80;;
31526;SDS011;18136;42.236;-73.040;2023-04-24T00:54:32;5.35;;;1.80;;
31526;SDS011;18136;42.236;-73.040;2023-04-24T00:57:00;1.80;;;1.50;;
31526;SDS011;18136;42.236;-73.040;2023-04-24T00:59:28;2.47;;;1.30;;
31526;SDS011;18136;42.236;-73.040;2023-04-24T01:01:55;1.90;;;1.80;;
31526;SDS011;18136;42.236;-73.040;2023-04-24T01:04:21;2.67;;;1.58;;
31526;SDS011;18136;42.236;-73.040;2023-04-24T01:06:47;3.67;;;1.52;;
31526;SDS011;18136;42.236;-73.040;2023-04-24T01:09:15;1.98;;;1.30;;
31526;SDS011;18136;42.236;-73.040;2023-04-24T01:11:43;2.90;;;1.60;;
31526;SDS011;18136;42.236;-73.040;2023-04-24T01:14:09;1.92;;;1.63;;
31526;SDS011;18136;42.236;-73.040;2023-04-24T01:16:37;1.80;;;1.70;;
31526;SDS011;18136;42.236;-73.040;2023-04-24T01:19:05;5.00;;;2.50;;
31526;SDS011;18136;42.236;-73.040;2023-04-24T01:21:33;1.70;;;1.60;;
31526;SDS011;18136;42.236;-73.040;2023-04-24T01:24:06;1.70;;;1.60;;
31526;SDS011;18136;42.236;-73.040;2023-04-24T01:26:32;3.15;;;1.42;;
31526;SDS011;18136;42.236;-73.040;2023-04-24T01:28:59;1.60;;;1.50;;
31526;SDS011;18136;42.236;-73.040;2023-04-24T01:31:25;1.60;;;1.50;;
31526;SDS011;18136;42.236;-73.040;2023-04-24T01:33:51;1.95;;;1.85;;
31526;SDS011;18136;42.236;-73.040;2023-04-24T01:36:19;1.77;;;1.50;;
31526;SDS011;18136;42.236;-73.040;2023-04-24T01:38:46;1.70;;;1.52;;
31526;SDS011;18136;42.236;-73.040;2023-04-24T01:41:12;1.80;;;1.58;;
31526;SDS011;18136;42.236;-73.040;2023-04-24T01:43:38;3.17;;;1.70;;
31526;SDS011;18136;42.236;-73.040;2023-04-24T01:46:05;3.03;;;1.70;;
31526;SDS011;18136;42.236;-73.040;2023-04-24T01:48:32;2.42;;;1.58;;
31526;SDS011;18136;42.236;-73.040;2023-04-24T01:50:59;1.90;;;1.80;;
31526;SDS011;18136;42.236;-73.040;2023-04-24T01:53:25;1.95;;;1.63;;
31526;SDS011;18136;42.236;-73.040;2023-04-24T01:55:51;2.25;;;1.65;;
31526;SDS011;18136;42.236;-73.040;2023-04-24T01:58:17;2.45;;;1.80;;
31526;SDS011;18136;42.236;-73.040;2023-04-24T02:00:43;1.92;;;1.80;;
31526;SDS011;18136;42.236;-73.040;2023-04-24T02:03:09;2.63;;;1.67;;
31526;SDS011;18136;42.236;-73.040;2023-04-24T02:05:38;3.20;;;1.80;;
31526;SDS011;18136;42.236;-73.040;2023-04-24T02:08:04;2.58;;;1.80;;
31526;SDS011;18136;42.236;-73.040;2023-04-24T02:10:30;3.00;;;1.60;;
31526;SDS011;18136;42.236;-73.040;2023-04-24T02:12:56;2.00;;;1.90;;
31526;SDS011;18136;42.236;-73.040;2023-04-24T02:15:24;1.58;;;1.48;;
31526;SDS011;18136;42.236;-73.040;2023-04-24T02:17:50;2.10;;;1.40;;
31526;SDS011;18136;42.236;-73.040;2023-04-24T02:20:16;1.67;;;1.50;;
31526;SDS011;18136;42.236;-73.040;2023-04-24T02:22:46;2.03;;;1.65;;
31526;SDS011;18136;42.236;-73.040;2023-04-24T02:25:12;1.40;;;1.30;;
31526;SDS011;18136;42.236;-73.040;2023-04-24T02:27:38;2.28;;;1.08;;
31526;SDS011;18136;42.236;-73.040;2023-04-24T02:30:04;2.45;;;1.23;;
31526;SDS011;18136;42.236;-73.040;2023-04-24T02:32:31;3.05;;;1.20;;
31526;SDS011;18136;42.236;-73.040;2023-04-24T02:34:57;1.20;;;1.10;;
31526;SDS011;18136;42.236;-73.040;2023-04-24T02:37:24;1.35;;;1.00;;
31526;SDS011;18136;42.236;-73.040;2023-04-24T02:39:50;4.13;;;1.33;;
31526;SDS011;18136;42.236;-73.040;2023-04-24T02:42:16;1.00;;;1.00;;
31526;SDS011;18136;42.236;-73.040;2023-04-24T02:44:42;1.88;;;0.90;;
31526;SDS011;18136;42.236;-73.040;2023-04-24T02:47:08;1.50;;;1.00;;
31526;SDS011;18136;42.236;-73.040;2023-04-24T02:49:34;0.80;;;0.80;;
31526;SDS011;18136;42.236;-73.040;2023-04-24T02:52:00;1.67;;;0.80;;
31526;SDS011;18136;42.236;-73.040;2023-04-24T02:54:26;1.23;;;0.82;;
31526;SDS011;18136;42.236;-73.040;2023-04-24T02:56:52;2.30;;;0.80;;
31526;SDS011;18136;42.236;-73.040;2023-04-24T02:59:18;2.35;;;0.60;;
31526;SDS011;18136;42.236;-73.040;2023-04-24T03:01:44;0.70;;;0.70;;
31526;SDS011;18136;42.236;-73.040;2023-04-24T03:04:10;0.70;;;0.70;;
31526;SDS011;18136;42.236;-73.040;2023-04-24T03:06:36;1.33;;;0.70;;
31526;SDS011;18136;42.236;-73.040;2023-04-24T03:09:02;3.88;;;0.75;;
31526;SDS011;18136;42.236;-73.040;2023-04-24T03:11:28;1.42;;;0.80;;
31526;SDS011;18136;42.236;-73.040;2023-04-24T03:13:55;0.65;;;0.52;;
31526;SDS011;18136;42.236;-73.040;2023-04-24T03:16:21;0.90;;;0.63;;
31526;SDS011;18136;42.236;-73.040;2023-04-24T03:18:47;0.50;;;0.50;;
31526;SDS011;18136;42.236;-73.040;2023-04-24T03:21:13;0.50;;;0.50;;
31526;SDS011;18136;42.236;-73.040;2023-04-24T03:23:39;2.10;;;0.70;;
31526;SDS011;18136;42.236;-73.040;2023-04-24T03:26:05;1.35;;;0.50;;
31526;SDS011;18136;42.236;-73.040;2023-04-24T03:28:31;1.30;;;0.60;;
31526;SDS011;18136;42.236;-73.040;2023-04-24T03:30:57;0.45;;;0.45;;
31526;SDS011;18136;42.236;-73.040;2023-04-24T03:33:23;1.85;;;0.75;;
31526;SDS011;18136;42.236;-73.040;2023-04-24T03:35:49;0.52;;;0.52;;
31526;SDS011;18136;42.236;-73.040;2023-04-24T03:38:15;0.93;;;0.45;;
31526;SDS011;18136;42.236;-73.040;2023-04-24T03:40:41;0.60;;;0.50;;
31526;SDS011;18136;42.236;-73.040;2023-04-24T03:43:07;0.65;;;0.60;;
31526;SDS011;18136;42.236;-73.040;2023-04-24T03:45:33;0.80;;;0.52;;
31526;SDS011;18136;42.236;-73.040;2023-04-24T03:47:59;0.85;;;0.70;;
31526;SDS011;18136;42.236;-73.040;2023-04-24T03:50:25;0.88;;;0.60;;
31526;SDS011;18136;42.236;-73.040;2023-04-24T03:52:51;0.93;;;0.63;;
31526;SDS011;18136;42.236;-73.040;2023-04-24T03:55:17;0.80;;;0.80;;
31526;SDS011;18136;42.236;-73.040;2023-04-24T03:57:44;1.08;;;0.90;;
31526;SDS011;18136;42.236;-73.040;2023-04-24T04:00:10;1.30;;;0.80;;
31526;SDS011;18136;42.236;-73.040;2023-04-24T04:02:36;2.47;;;1.08;;
31526;SDS011;18136;42.236;-73.040;2023-04-24T04:05:02;1.38;;;1.20;;
31526;SDS011;18136;42.236;-73.040;2023-04-24T04:07:29;1.40;;;1.30;;
31526;SDS011;18136;42.236;-73.040;2023-04-24T04:09:55;2.55;;;1.50;;
31526;SDS011;18136;42.236;-73.040;2023-04-24T04:12:21;2.25;;;1.95;;
31526;SDS011;18136;42.236;-73.040;2023-04-24T04:14:47;3.72;;;2.22;;
31526;SDS011;18136;42.236;-73.040;2023-04-24T04:17:13;2.75;;;2.00;;
31526;SDS011;18136;42.236;-73.040;2023-04-24T04:19:39;4.63;;;2.55;;
31526;SDS011;18136;42.236;-73.040;2023-04-24T04:22:05;4.53;;;3.22;;
31526;SDS011;18136;42.236;-73.040;2023-04-24T04:24:33;3.60;;;3.30;;
31526;SDS011;18136;42.236;-73.040;2023-04-24T04:27:03;3.88;;;3.33;;
31526;SDS011;18136;42.236;-73.040;2023-04-24T04:29:30;4.05;;;3.75;;
31526;SDS011;18136;42.236;-73.040;2023-04-24T04:31:57;4.82;;;3.72;;
31526;SDS011;18136;42.236;-73.040;2023-04-24T04:34:23;4.70;;;4.30;;
31526;SDS011;18136;42.236;-73.040;2023-04-24T04:36:49;4.72;;;4.10;;
31526;SDS011;18136;42.236;-73.040;2023-04-24T04:39:15;4.55;;;4.15;;
31526;SDS011;18136;42.236;-73.040;2023-04-24T04:41:43;3.88;;;3.58;;
31526;SDS011;18136;42.236;-73.040;2023-04-24T04:44:11;5.20;;;4.65;;
31526;SDS011;18136;42.236;-73.040;2023-04-24T04:46:37;4.75;;;4.35;;
31526;SDS011;18136;42.236;-73.040;2023-04-24T04:49:03;5.03;;;4.50;;
31526;SDS011;18136;42.236;-73.040;2023-04-24T04:51:30;5.00;;;4.43;;
31526;SDS011;18136;42.236;-73.040;2023-04-24T04:53:56;5.25;;;4.85;;
31526;SDS011;18136;42.236;-73.040;2023-04-24T04:56:22;5.13;;;4.70;;
31526;SDS011;18136;42.236;-73.040;2023-04-24T04:58:48;6.45;;;5.85;;
31526;SDS011;18136;42.236;-73.040;2023-04-24T05:01:14;6.43;;;5.30;;
31526;SDS011;18136;42.236;-73.040;2023-04-24T05:03:40;6.85;;;6.25;;
31526;SDS011;18136;42.236;-73.040;2023-04-24T05:06:06;6.85;;;6.25;;
31526;SDS011;18136;42.236;-73.040;2023-04-24T05:08:32;7.57;;;6.88;;
31526;SDS011;18136;42.236;-73.040;2023-04-24T05:10:58;6.55;;;5.95;;
31526;SDS011;18136;42.236;-73.040;2023-04-24T05:13:24;6.90;;;6.25;;
31526;SDS011;18136;42.236;-73.040;2023-04-24T05:15:50;7.55;;;6.85;;
31526;SDS011;18136;42.236;-73.040;2023-04-24T05:18:16;6.97;;;6.38;;
31526;SDS011;18136;42.236;-73.040;2023-04-24T05:20:43;8.40;;;7.55;;
31526;SDS011;18136;42.236;-73.040;2023-04-24T05:23:09;7.20;;;6.60;;
31526;SDS011;18136;42.236;-73.040;2023-04-24T05:25:36;6.78;;;6.15;;
31526;SDS011;18136;42.236;-73.040;2023-04-24T05:28:04;8.48;;;7.20;;
31526;SDS011;18136;42.236;-73.040;2023-04-24T05:30:30;8.45;;;6.85;;
31526;SDS011;18136;42.236;-73.040;2023-04-24T05:32:56;7.72;;;6.93;;
31526;SDS011;18136;42.236;-73.040;2023-04-24T05:35:27;7.40;;;6.57;;
31526;SDS011;18136;42.236;-73.040;2023-04-24T05:37:53;7.00;;;6.03;;
31526;SDS011;18136;42.236;-73.040;2023-04-24T05:40:19;7.22;;;6.53;;
31526;SDS011;18136;42.236;-73.040;2023-04-24T05:42:45;6.82;;;6.22;;
31526;SDS011;18136;42.236;-73.040;2023-04-24T05:45:11;7.32;;;6.63;;
31526;SDS011;18136;42.236;-73.040;2023-04-24T05:47:42;7.22;;;6.63;;
31526;SDS011;18136;42.236;-73.040;2023-04-24T05:50:12;7.57;;;6.88;;
31526;SDS011;18136;42.236;-73.040;2023-04-24T05:52:38;7.63;;;6.93;;
31526;SDS011;18136;42.236;-73.040;2023-04-24T05:55:04;6.55;;;5.95;;
31526;SDS011;18136;42.236;-73.040;2023-04-24T05:57:30;6.85;;;6.00;;
31526;SDS011;18136;42.236;-73.040;2023-04-24T05:59:56;7.63;;;6.72;;
31526;SDS011;18136;42.236;-73.040;2023-04-24T06:02:22;6.18;;;5.43;;
31526;SDS011;18136;42.236;-73.040;2023-04-24T06:04:48;6.32;;;5.72;;
31526;SDS011;18136;42.236;-73.040;2023-04-24T06:07:14;6.10;;;5.55;;
31526;SDS011;18136;42.236;-73.040;2023-04-24T06:09:40;7.20;;;6.53;;
31526;SDS011;18136;42.236;-73.040;2023-04-24T06:12:06;6.03;;;5.53;;
31526;SDS011;18136;42.236;-73.040;2023-04-24T06:14:33;6.45;;;5.85;;
31526;SDS011;18136;42.236;-73.040;2023-04-24T06:17:00;7.15;;;6.55;;
31526;SDS011;18136;42.236;-73.040;2023-04-24T06:19:26;6.68;;;6.07;;
31526;SDS011;18136;42.236;-73.040;2023-04-24T06:21:52;6.90;;;6.30;;
31526;SDS011;18136;42.236;-73.040;2023-04-24T06:24:18;6.80;;;6.10;;
31526;SDS011;18136;42.236;-73.040;2023-04-24T06:26:44;6.47;;;5.88;;
31526;SDS011;18136;42.236;-73.040;2023-04-24T06:29:10;6.55;;;5.95;;
31526;SDS011;18136;42.236;-73.040;2023-04-24T06:31:36;6.70;;;5.97;;
31526;SDS011;18136;42.236;-73.040;2023-04-24T06:34:02;8.57;;;5.82;;
31526;SDS011;18136;42.236;-73.040;2023-04-24T06:36:29;6.72;;;5.82;;
31526;SDS011;18136;42.236;-73.040;2023-04-24T06:38:56;6.40;;;5.80;;
31526;SDS011;18136;42.236;-73.040;2023-04-24T06:41:22;6.63;;;6.03;;
31526;SDS011;18136;42.236;-73.040;2023-04-24T06:43:48;6.55;;;6.00;;
31526;SDS011;18136;42.236;-73.040;2023-04-24T06:46:14;6.57;;;5.97;;
31526;SDS011;18136;42.236;-73.040;2023-04-24T06:48:40;6.88;;;6.18;;
31526;SDS011;18136;42.236;-73.040;2023-04-24T06:51:06;6.00;;;5.50;;
31526;SDS011;18136;42.236;-73.040;2023-04-24T06:53:36;7.13;;;6.13;;
31526;SDS011;18136;42.236;-73.040;2023-04-24T06:56:02;7.18;;;6.47;;
31526;SDS011;18136;42.236;-73.040;2023-04-24T06:58:29;6.95;;;6.25;;
31526;SDS011;18136;42.236;-73.040;2023-04-24T07:00:56;6.97;;;6.28;;
31526;SDS011;18136;42.236;-73.040;2023-04-24T07:03:22;7.53;;;6.28;;
31526;SDS011;18136;42.236;-73.040;2023-04-24T07:05:48;7.38;;;6.68;;
31526;SDS011;18136;42.236;-73.040;2023-04-24T07:08:14;7.25;;;6.65;;
31526;SDS011;18136;42.236;-73.040;2023-04-24T07:10:42;6.95;;;6.35;;
31526;SDS011;18136;42.236;-73.040;2023-04-24T07:13:09;7.55;;;6.85;;
31526;SDS011;18136;42.236;-73.040;2023-04-24T07:15:35;7.53;;;6.57;;
31526;SDS011;18136;42.236;-73.040;2023-04-24T07:18:01;8.02;;;7.22;;
31526;SDS011;18136;42.236;-73.040;2023-04-24T07:20:27;7.50;;;6.80;;
31526;SDS011;18136;42.236;-73.040;2023-04-24T07:22:53;8.90;;;7.97;;
31526;SDS011;18136;42.236;-73.040;2023-04-24T07:25:19;8.82;;;6.35;;
31526;SDS011;18136;42.236;-73.040;2023-04-24T07:27:45;7.60;;;6.80;;
31526;SDS011;18136;42.236;-73.040;2023-04-24T07:30:12;7.43;;;6.80;;
31526;SDS011;18136;42.236;-73.040;2023-04-24T07:32:38;7.95;;;6.40;;
31526;SDS011;18136;42.236;-73.040;2023-04-24T07:35:04;7.25;;;6.55;;
31526;SDS011;18136;42.236;-73.040;2023-04-24T07:37:30;7.30;;;6.60;;
31526;SDS011;18136;42.236;-73.040;2023-04-24T07:39:56;8.75;;;6.78;;
31526;SDS011;18136;42.236;-73.040;2023-04-24T07:42:23;7.93;;;7.22;;
31526;SDS011;18136;42.236;-73.040;2023-04-24T07:44:49;8.60;;;6.72;;
31526;SDS011;18136;42.236;-73.040;2023-04-24T07:47:16;7.82;;;7.13;;
31526;SDS011;18136;42.236;-73.040;2023-04-24T07:49:42;7.97;;;6.70;;
31526;SDS011;18136;42.236;-73.040;2023-04-24T07:52:08;8.25;;;7.45;;
31526;SDS011;18136;42.236;-73.040;2023-04-24T07:54:34;7.68;;;6.90;;
31526;SDS011;18136;42.236;-73.040;2023-04-24T07:57:02;7.70;;;6.93;;
31526;SDS011;18136;42.236;-73.040;2023-04-24T07:59:28;7.28;;;6.57;;
31526;SDS011;18136;42.236;-73.040;2023-04-24T08:01:54;7.10;;;6.50;;
31526;SDS011;18136;42.236;-73.040;2023-04-24T08:04:20;7.80;;;6.57;;
31526;SDS011;18136;42.236;-73.040;2023-04-24T08:06:49;7.15;;;6.45;;
31526;SDS011;18136;42.236;-73.040;2023-04-24T08:09:15;7.97;;;6.50;;
31526;SDS011;18136;42.236;-73.040;2023-04-24T08:11:41;7.03;;;6.32;;
31526;SDS011;18136;42.236;-73.040;2023-04-24T08:14:08;7.15;;;6.60;;
31526;SDS011;18136;42.236;-73.040;2023-04-24T08:16:34;6.72;;;6.13;;
31526;SDS011;18136;42.236;-73.040;2023-04-24T08:19:01;7.75;;;6.80;;
31526;SDS011;18136;42.236;-73.040;2023-04-24T08:21:27;7.75;;;7.05;;
31526;SDS011;18136;42.236;-73.040;2023-04-24T08:23:53;7.55;;;6.78;;
31526;SDS011;18136;42.236;-73.040;2023-04-24T08:26:19;7.28;;;6.57;;
31526;SDS011;18136;42.236;-73.040;2023-04-24T08:28:45;8.68;;;6.93;;
31526;SDS011;18136;42.236;-73.040;2023-04-24T08:31:11;7.60;;;6.78;;
31526;SDS011;18136;42.236;-73.040;2023-04-24T08:33:37;7.65;;;6.85;;
31526;SDS011;18136;42.236;-73.040;2023-04-24T08:36:04;7.07;;;6.38;;
31526;SDS011;18136;42.236;-73.040;2023-04-24T08:38:31;7.45;;;6.45;;
31526;SDS011;18136;42.236;-73.040;2023-04-24T08:40:58;7.00;;;6.38;;
31526;SDS011;18136;42.236;-73.040;2023-04-24T08:43:25;6.85;;;6.22;;
31526;SDS011;18136;42.236;-73.040;2023-04-24T08:45:52;7.07;;;6.40;;
31526;SDS011;18136;42.236;-73.040;2023-04-24T08:48:21;10.75;;;6.95;;
31526;SDS011;18136;42.236;-73.040;2023-04-24T08:50:48;6.95;;;6.35;;
31526;SDS011;18136;42.236;-73.040;2023-04-24T08:53:16;11.05;;;7.20;;
31526;SDS011;18136;42.236;-73.040;2023-04-24T08:55:43;6.97;;;6.38;;
31526;SDS011;18136;42.236;-73.040;2023-04-24T08:58:12;7.20;;;6.47;;
31526;SDS011;18136;42.236;-73.040;2023-04-24T09:00:39;7.22;;;6.53;;
31526;SDS011;18136;42.236;-73.040;2023-04-24T09:03:11;7.57;;;6.80;;
31526;SDS011;18136;42.236;-73.040;2023-04-24T09:05:41;7.60;;;6.97;;
31526;SDS011;18136;42.236;-73.040;2023-04-24T09:08:10;7.60;;;6.90;;
31526;SDS011;18136;42.236;-73.040;2023-04-24T09:10:39;7.63;;;6.93;;
31526;SDS011;18136;42.236;-73.040;2023-04-24T09:13:06;7.28;;;6.57;;
31526;SDS011;18136;42.236;-73.040;2023-04-24T09:15:34;8.63;;;6.88;;
31526;SDS011;18136;42.236;-73.040;2023-04-24T09:18:00;7.32;;;6.72;;
31526;SDS011;18136;42.236;-73.040;2023-04-24T09:20:27;7.90;;;7.20;;
31526;SDS011;18136;42.236;-73.040;2023-04-24T09:22:53;7.32;;;6.72;;
31526;SDS011;18136;42.236;-73.040;2023-04-24T09:25:24;7.22;;;6.63;;
31526;SDS011;18136;42.236;-73.040;2023-04-24T09:28:00;9.63;;;7.22;;
31526;SDS011;18136;42.236;-73.040;2023-04-24T09:30:31;8.40;;;7.60;;
31526;SDS011;18136;42.236;-73.040;2023-04-24T09:33:13;7.10;;;6.50;;
31526;SDS011;18136;42.236;-73.040;2023-04-24T09:35:52;7.93;;;7.22;;
31526;SDS011;18136;42.236;-73.040;2023-04-24T09:38:19;7.88;;;7.07;;
31526;SDS011;18136;42.236;-73.040;2023-04-24T09:40:59;6.97;;;6.40;;
31526;SDS011;18136;42.236;-73.040;2023-04-24T09:43:28;9.10;;;7.72;;
31526;SDS011;18136;42.236;-73.040;2023-04-24T09:45:58;7.80;;;7.10;;
31526;SDS011;18136;42.236;-73.040;2023-04-24T09:48:35;8.02;;;7.32;;
31526;SDS011;18136;42.236;-73.040;2023-04-24T09:51:03;7.55;;;6.85;;
31526;SDS011;18136;42.236;-73.040;2023-04-24T09:53:36;7.78;;;7.07;;
31526;SDS011;18136;42.236;-73.040;2023-04-24T09:56:06;7.38;;;6.70;;
31526;SDS011;18136;42.236;-73.040;2023-04-24T09:58:34;7.55;;;6.93;;
31526;SDS011;18136;42.236;-73.040;2023-04-24T10:01:01;9.00;;;8.18;;
31526;SDS011;18136;42.236;-73.040;2023-04-24T10:03:31;8.63;;;7.82;;
31526;SDS011;18136;42.236;-73.040;2023-04-24T10:06:02;8.18;;;7.38;;
31526;SDS011;18136;42.236;-73.040;2023-04-24T10:08:34;8.25;;;7.40;;
31526;SDS011;18136;42.236;-73.040;2023-04-24T10:11:01;9.10;;;8.30;;
31526;SDS011;18136;42.236;-73.040;2023-04-24T10:13:28;9.18;;;8.27;;
31526;SDS011;18136;42.236;-73.040;2023-04-24T10:15:54;8.90;;;8.13;;
31526;SDS011;18136;42.236;-73.040;2023-04-24T10:18:24;8.80;;;8.00;;
31526;SDS011;18136;42.236;-73.040;2023-04-24T10:20:51;8.60;;;7.90;;
31526;SDS011;18136;42.236;-73.040;2023-04-24T10:23:19;8.38;;;7.68;;
31526;SDS011;18136;42.236;-73.040;2023-04-24T10:25:46;8.15;;;7.38;;
31526;SDS011;18136;42.236;-73.040;2023-04-24T10:28:12;7.85;;;7.15;;
31526;SDS011;18136;42.236;-73.040;2023-04-24T10:30:39;7.88;;;7.18;;
31526;SDS011;18136;42.236;-73.040;2023-04-24T10:33:08;8.05;;;7.35;;
31526;SDS011;18136;42.236;-73.040;2023-04-24T10:35:40;7.82;;;7.22;;
31526;SDS011;18136;42.236;-73.040;2023-04-24T10:38:13;8.00;;;7.30;;
31526;SDS011;18136;42.236;-73.040;2023-04-24T10:40:43;7.32;;;6.63;;
31526;SDS011;18136;42.236;-73.040;2023-04-24T10:43:09;7.88;;;7.07;;
31526;SDS011;18136;42.236;-73.040;2023-04-24T10:45:36;7.05;;;6.43;;
31526;SDS011;18136;42.236;-73.040;2023-04-24T10:48:04;8.32;;;6.68;;
31526;SDS011;18136;42.236;-73.040;2023-04-24T10:53:18;8.02;;;7.30;;
31526;SDS011;18136;42.236;-73.040;2023-04-24T10:55:46;7.93;;;7.13;;
31526;SDS011;18136;42.236;-73.040;2023-04-24T10:58:13;8.88;;;8.07;;
31526;SDS011;18136;42.236;-73.040;2023-04-24T11:00:42;7.13;;;6.45;;
31526;SDS011;18136;42.236;-73.040;2023-04-24T11:03:27;7.78;;;7.07;;
31526;SDS011;18136;42.236;-73.040;2023-04-24T11:05:56;7.40;;;6.78;;
31526;SDS011;18136;42.236;-73.040;2023-04-24T11:08:38;6.80;;;6.30;;
31526;SDS011;18136;42.236;-73.040;2023-04-24T11:11:09;7.88;;;7.18;;
31526;SDS011;18136;42.236;-73.040;2023-04-24T11:16:21;7.05;;;6.30;;
31526;SDS011;18136;42.236;-73.040;2023-04-24T11:29:46;6.95;;;6.43;;
31526;SDS011;18136;42.236;-73.040;2023-04-24T11:34:59;8.35;;;7.55;;
31526;SDS011;18136;42.236;-73.040;2023-04-24T11:37:35;7.45;;;6.78;;
31526;SDS011;18136;42.236;-73.040;2023-04-24T11:40:04;7.53;;;6.93;;
31526;SDS011;18136;42.236;-73.040;2023-04-24T11:42:35;7.47;;;6.88;;
31526;SDS011;18136;42.236;-73.040;2023-04-24T11:45:02;8.45;;;7.65;;
31526;SDS011;18136;42.236;-73.040;2023-04-24T11:47:34;7.65;;;6.95;;
31526;SDS011;18136;42.236;-73.040;2023-04-24T11:50:01;9.07;;;7.70;;
31526;SDS011;18136;42.236;-73.040;2023-04-24T11:52:29;7.70;;;7.00;;
31526;SDS011;18136;42.236;-73.040;2023-04-24T11:54:56;7.85;;;7.25;;
31526;SDS011;18136;42.236;-73.040;2023-04-24T11:57:23;7.28;;;6.57;;
31526;SDS011;18136;42.236;-73.040;2023-04-24T11:59:53;7.90;;;6.53;;
31526;SDS011;18136;42.236;-73.040;2023-04-24T12:02:25;8.25;;;7.45;;
31526;SDS011;18136;42.236;-73.040;2023-04-24T12:04:52;7.85;;;7.13;;
31526;SDS011;18136;42.236;-73.040;2023-04-24T12:07:21;6.78;;;6.28;;
31526;SDS011;18136;42.236;-73.040;2023-04-24T12:09:56;7.50;;;6.90;;
31526;SDS011;18136;42.236;-73.040;2023-04-24T12:12:28;6.78;;;6.18;;
31526;SDS011;18136;42.236;-73.040;2023-04-24T12:14:55;7.18;;;6.35;;
31526;SDS011;18136;42.236;-73.040;2023-04-24T12:19:52;7.18;;;6.57;;
31526;SDS011;18136;42.236;-73.040;2023-04-24T12:22:22;7.72;;;7.03;;
31526;SDS011;18136;42.236;-73.040;2023-04-24T12:25:03;8.15;;;7.45;;
31526;SDS011;18136;42.236;-73.040;2023-04-24T12:27:31;6.43;;;5.78;;
31526;SDS011;18136;42.236;-73.040;2023-04-24T12:29:58;6.22;;;5.63;;
31526;SDS011;18136;42.236;-73.040;2023-04-24T12:32:25;7.25;;;6.65;;
31526;SDS011;18136;42.236;-73.040;2023-04-24T12:34:52;7.63;;;6.93;;
31526;SDS011;18136;42.236;-73.040;2023-04-24T12:37:19;7.07;;;6.38;;
31526;SDS011;18136;42.236;-73.040;2023-04-24T12:40:02;6.18;;;5.68;;
31526;SDS011;18136;42.236;-73.040;2023-04-24T12:42:33;5.85;;;5.35;;
31526;SDS011;18136;42.236;-73.040;2023-04-24T12:45:06;5.97;;;5.38;;
31526;SDS011;18136;42.236;-73.040;2023-04-24T12:47:33;7.63;;;6.28;;
31526;SDS011;18136;42.236;-73.040;2023-04-24T12:50:00;6.05;;;5.55;;
31526;SDS011;18136;42.236;-73.040;2023-04-24T12:52:27;6.30;;;5.80;;
31526;SDS011;18136;42.236;-73.040;2023-04-24T12:54:55;6.32;;;5.72;;
31526;SDS011;18136;42.236;-73.040;2023-04-24T12:57:23;6.22;;;5.63;;
31526;SDS011;18136;42.236;-73.040;2023-04-24T12:59:53;5.60;;;5.20;;
31526;SDS011;18136;42.236;-73.040;2023-04-24T13:02:21;5.40;;;4.95;;
31526;SDS011;18136;42.236;-73.040;2023-04-24T13:04:48;6.70;;;5.57;;
31526;SDS011;18136;42.236;-73.040;2023-04-24T13:07:15;5.93;;;5.43;;
31526;SDS011;18136;42.236;-73.040;2023-04-24T13:09:42;6.32;;;5.78;;
31526;SDS011;18136;42.236;-73.040;2023-04-24T13:12:09;5.65;;;5.15;;
31526;SDS011;18136;42.236;-73.040;2023-04-24T13:14:36;5.80;;;5.30;;
31526;SDS011;18136;42.236;-73.040;2023-04-24T13:17:03;6.00;;;5.50;;
31526;SDS011;18136;42.236;-73.040;2023-04-24T13:19:34;6.32;;;5.70;;
31526;SDS011;18136;42.236;-73.040;2023-04-24T13:22:09;6.68;;;6.07;;
31526;SDS011;18136;42.236;-73.040;2023-04-24T13:24:37;8.60;;;5.90;;
31526;SDS011;18136;42.236;-73.040;2023-04-24T13:27:05;7.50;;;6.10;;
31526;SDS011;18136;42.236;-73.040;2023-04-24T13:29:31;6.85;;;6.25;;
31526;SDS011;18136;42.236;-73.040;2023-04-24T13:31:57;8.13;;;6.50;;
31526;SDS011;18136;42.236;-73.040;2023-04-24T13:34:23;8.02;;;7.00;;
31526;SDS011;18136;42.236;-73.040;2023-04-24T13:36:50;7.93;;;7.22;;
31526;SDS011;18136;42.236;-73.040;2023-04-24T13:39:18;8.07;;;7.38;;
31526;SDS011;18136;42.236;-73.040;2023-04-24T13:41:44;8.40;;;7.63;;
31526;SDS011;18136;42.236;-73.040;2023-04-24T13:44:12;9.45;;;8.10;;
31526;SDS011;18136;42.236;-73.040;2023-04-24T13:46:38;8.45;;;7.75;;
31526;SDS011;18136;42.236;-73.040;2023-04-24T13:49:04;8.00;;;7.20;;
31526;SDS011;18136;42.236;-73.040;2023-04-24T13:51:30;8.93;;;8.13;;
31526;SDS011;18136;42.236;-73.040;2023-04-24T13:53:56;8.32;;;7.38;;
31526;SDS011;18136;42.236;-73.040;2023-04-24T13:56:22;8.38;;;7.57;;
31526;SDS011;18136;42.236;-73.040;2023-04-24T13:58:48;8.50;;;7.13;;
31526;SDS011;18136;42.236;-73.040;2023-04-24T14:01:15;8.40;;;7.32;;
31526;SDS011;18136;42.236;-73.040;2023-04-24T14:03:41;8.48;;;7.40;;
31526;SDS011;18136;42.236;-73.040;2023-04-24T14:06:08;7.88;;;7.10;;
31526;SDS011;18136;42.236;-73.040;2023-04-24T14:08:34;8.32;;;7.53;;
31526;SDS011;18136;42.236;-73.040;2023-04-24T14:11:00;8.93;;;8.02;;
31526;SDS011;18136;42.236;-73.040;2023-04-24T14:13:27;9.70;;;8.73;;
31526;SDS011;18136;42.236;-73.040;2023-04-24T14:15:54;9.25;;;8.35;;
31526;SDS011;18136;42.236;-73.040;2023-04-24T14:18:20;9.32;;;8.43;;
31526;SDS011;18136;42.236;-73.040;2023-04-24T14:20:46;9.43;;;8.60;;
31526;SDS011;18136;42.236;-73.040;2023-04-24T14:23:12;9.90;;;9.00;;
31526;SDS011;18136;42.236;-73.040;2023-04-24T14:25:38;9.40;;;7.63;;
31526;SDS011;18136;42.236;-73.040;2023-04-24T14:28:05;9.10;;;8.30;;
31526;SDS011;18136;42.236;-73.040;2023-04-24T14:30:32;8.25;;;7.45;;
31526;SDS011;18136;42.236;-73.040;2023-04-24T14:32:58;9.02;;;8.23;;
31526;SDS011;18136;42.236;-73.040;2023-04-24T14:35:24;10.45;;;9.38;;
31526;SDS011;18136;42.236;-73.040;2023-04-24T14:37:50;10.15;;;9.18;;
31526;SDS011;18136;42.236;-73.040;2023-04-24T14:40:17;11.52;;;8.75;;
31526;SDS011;18136;42.236;-73.040;2023-04-24T14:42:43;9.40;;;8.50;;